createdAt,value
2023-04-07T00:03:17.971Z,4.14
2023-04-07T00:08:11.220Z,4.17
2023-04-07T00:13:04.473Z,4.19
2023-04-07T00:17:57.415Z,4.21
2023-04-07T00:22:50.664Z,4.24
2023-04-07T00:27:43.474Z,4.27
2023-04-07T00:32:36.626Z,4.29
2023-04-07T00:37:29.711Z,4.32
2023-04-07T00:42:25.461Z,4.35
2023-04-07T00:47:18.305Z,4.37
2023-04-07T00:52:12.570Z,4.41
2023-04-07T00:57:05.557Z,4.43
2023-04-07T01:07:47.500Z,4.49
2023-04-07T01:12:49.114Z,4.52
2023-04-07T01:17:54.544Z,4.55
2023-04-07T01:22:54.590Z,4.57
2023-04-07T01:28:04.227Z,4.61
2023-04-07T01:32:59.523Z,4.63
2023-04-07T01:37:53.747Z,4.65
2023-04-07T01:42:48.813Z,4.68
2023-04-07T01:47:45.123Z,4.71
2023-04-07T01:52:39.103Z,4.73
2023-04-07T01:57:32.280Z,4.74
2023-04-07T02:02:30.712Z,4.76
2023-04-07T02:07:41.439Z,4.78
2023-04-07T02:12:36.606Z,4.81
2023-04-07T02:17:39.331Z,4.84
2023-04-07T02:22:34.309Z,4.86
2023-04-07T02:27:27.133Z,4.89
2023-04-07T02:32:20.076Z,4.92
2023-04-07T02:37:12.970Z,4.94
2023-04-07T02:42:05.953Z,4.97
2023-04-07T02:46:58.760Z,5.00
2023-04-07T02:51:51.557Z,5.02
2023-04-07T02:56:44.354Z,5.05
2023-04-07T03:01:37.266Z,5.08
2023-04-07T03:06:30.215Z,5.09
2023-04-07T03:11:31.298Z,5.11
2023-04-07T03:16:25.746Z,5.13
2023-04-07T03:21:25.993Z,5.16
2023-04-07T03:26:18.910Z,5.17
2023-04-07T03:31:11.837Z,5.18
2023-04-07T03:36:04.922Z,5.21
2023-04-07T03:40:58.475Z,5.22
2023-04-07T03:45:51.951Z,5.25
2023-04-07T03:50:47.720Z,5.27
2023-04-07T03:55:43.760Z,5.29
2023-04-07T04:00:44.063Z,5.31
2023-04-07T04:05:37.454Z,5.32
2023-04-07T04:10:30.482Z,5.35
2023-04-07T04:15:24.030Z,5.39
2023-04-07T04:20:17.174Z,5.41
2023-04-07T04:25:13.452Z,5.45
2023-04-07T04:30:09.544Z,5.48
2023-04-07T04:35:14.810Z,5.50
2023-04-07T04:40:16.055Z,5.53
2023-04-07T04:45:10.385Z,5.55
2023-04-07T04:50:04.654Z,5.60
2023-04-07T04:54:59.412Z,5.65
2023-04-07T04:59:53.011Z,5.72
2023-04-07T05:04:46.373Z,5.79
2023-04-07T05:09:51.343Z,5.84
2023-04-07T05:14:45.089Z,5.87
2023-04-07T05:19:37.959Z,5.91
2023-04-07T05:24:36.931Z,5.96
2023-04-07T05:29:30.734Z,6.01
2023-04-07T05:34:24.160Z,6.06
2023-04-07T05:39:19.958Z,6.10
2023-04-07T05:44:13.694Z,6.16
2023-04-07T05:54:06.499Z,6.28
2023-04-07T05:59:00.698Z,6.37
2023-04-07T06:03:53.976Z,6.46
2023-04-07T06:08:52.024Z,6.59
2023-04-07T06:13:44.942Z,6.73
2023-04-07T06:18:38.009Z,6.88
2023-04-07T06:23:32.567Z,7.10
2023-04-07T06:28:25.579Z,7.34
2023-04-07T06:33:18.860Z,7.67
2023-04-07T06:38:12.369Z,7.79
2023-04-07T06:43:06.368Z,7.83
2023-04-07T06:48:15.706Z,7.89
2023-04-07T06:53:08.505Z,7.93
2023-04-07T06:58:02.946Z,7.86
2023-04-07T07:02:56.132Z,7.87
2023-04-07T07:07:49.062Z,7.89
2023-04-07T07:12:41.828Z,7.92
2023-04-07T07:17:34.608Z,7.92
2023-04-07T07:22:27.444Z,7.89
2023-04-07T07:27:20.309Z,7.97
2023-04-07T07:32:13.158Z,8.34
2023-04-07T07:37:06.137Z,8.92
2023-04-07T07:41:58.989Z,9.45
2023-04-07T07:46:52.264Z,9.73
2023-04-07T07:51:46.275Z,9.99
2023-04-07T07:56:39.089Z,10.03
2023-04-07T08:01:32.403Z,10.07
2023-04-07T08:06:25.486Z,10.09
2023-04-07T08:11:19.167Z,10.13
2023-04-07T08:16:12.713Z,10.11
2023-04-07T08:21:06.850Z,10.03
2023-04-07T08:25:59.839Z,10.15
2023-04-07T08:30:52.747Z,10.31
2023-04-07T08:35:45.530Z,10.42
2023-04-07T08:40:38.746Z,10.58
2023-04-07T08:45:34.710Z,10.58
2023-04-07T08:50:28.859Z,10.48
2023-04-07T08:55:22.004Z,10.33
2023-04-07T09:00:16.699Z,10.24
2023-04-07T09:05:10.310Z,10.15
2023-04-07T09:10:04.094Z,10.01
2023-04-07T09:14:57.328Z,9.94
2023-04-07T09:19:50.664Z,9.90
2023-04-07T09:24:43.730Z,10.07
2023-04-07T09:29:36.662Z,10.29
2023-04-07T09:34:34.587Z,10.37
2023-04-07T09:39:28.310Z,10.53
2023-04-07T09:44:22.829Z,10.71
2023-04-07T09:49:15.701Z,10.70
2023-04-07T09:54:08.606Z,10.74
2023-04-07T09:59:03.013Z,10.89
2023-04-07T10:03:56.649Z,10.94
2023-04-07T10:08:49.815Z,11.13
2023-04-07T10:13:43.570Z,11.24
2023-04-07T10:18:38.540Z,11.20
2023-04-07T10:23:58.162Z,11.24
2023-04-07T10:28:55.033Z,11.33
2023-04-07T10:33:51.468Z,11.41
2023-04-07T10:39:11.187Z,11.51
2023-04-07T10:44:05.283Z,11.53
2023-04-07T10:49:11.766Z,11.37
2023-04-07T10:54:23.781Z,11.25
2023-04-07T10:59:17.324Z,11.21
2023-04-07T11:04:10.317Z,11.19
2023-04-07T11:09:03.404Z,11.13
2023-04-07T11:13:56.316Z,11.05
2023-04-07T11:18:49.289Z,11.04
2023-04-07T11:23:44.582Z,11.03
2023-04-07T11:28:46.444Z,11.01
2023-04-07T11:33:42.238Z,11.01
2023-04-07T11:38:39.575Z,11.06
2023-04-07T11:43:32.451Z,11.15
2023-04-07T11:48:31.345Z,11.14
2023-04-07T11:53:32.639Z,11.22
2023-04-07T11:58:51.663Z,11.46
2023-04-07T12:04:04.892Z,11.56
2023-04-07T12:08:58.082Z,11.59
2023-04-07T12:13:51.047Z,11.84
2023-04-07T12:18:43.883Z,11.97
2023-04-07T12:23:37.350Z,12.17
2023-04-07T12:28:31.630Z,12.87
2023-04-07T12:33:24.734Z,13.61
2023-04-07T12:38:17.618Z,13.57
2023-04-07T12:43:10.990Z,13.49
2023-04-07T12:48:04.439Z,13.26
2023-04-07T12:52:59.482Z,13.05
2023-04-07T12:57:52.872Z,12.72
2023-04-07T13:02:46.357Z,12.55
2023-04-07T13:07:39.436Z,12.38
2023-04-07T13:12:32.308Z,12.26
2023-04-07T13:17:25.293Z,12.10
2023-04-07T13:22:21.625Z,11.88
2023-04-07T13:27:15.076Z,11.83
2023-04-07T13:32:13.165Z,11.93
2023-04-07T13:37:07.196Z,12.15
2023-04-07T13:42:01.266Z,12.17
2023-04-07T13:46:56.148Z,12.08
2023-04-07T13:51:49.500Z,12.10
2023-04-07T13:56:42.426Z,12.10
2023-04-07T14:01:39.123Z,11.93
2023-04-07T14:06:32.276Z,11.63
2023-04-07T14:11:25.160Z,11.32
2023-04-07T14:16:18.713Z,11.02
2023-04-07T14:21:11.649Z,10.89
2023-04-07T14:26:05.217Z,10.86
2023-04-07T14:30:58.114Z,10.84
2023-04-07T14:35:51.610Z,10.79
2023-04-07T14:40:45.393Z,10.85
2023-04-07T14:45:39.194Z,11.00
2023-04-07T14:50:34.670Z,11.14
2023-04-07T14:55:27.652Z,11.30
2023-04-07T15:00:21.007Z,11.58
2023-04-07T15:05:13.905Z,11.80
2023-04-07T15:10:07.523Z,11.78
2023-04-07T15:15:00.647Z,11.71
2023-04-07T15:19:53.467Z,11.58
2023-04-07T15:24:46.255Z,11.50
2023-04-07T15:29:42.493Z,11.37
2023-04-07T15:34:35.394Z,11.28
2023-04-07T15:39:28.241Z,11.07
2023-04-07T15:44:21.188Z,10.87
2023-04-07T15:49:14.004Z,10.79
2023-04-07T15:54:06.861Z,10.66
2023-04-07T15:58:59.660Z,10.50
2023-04-07T16:03:52.776Z,10.41
2023-04-07T16:08:45.788Z,10.33
2023-04-07T16:13:38.559Z,10.21
2023-04-07T16:18:31.409Z,10.12
2023-04-07T16:23:24.436Z,9.99
2023-04-07T16:28:17.641Z,9.82
2023-04-07T16:33:10.644Z,9.64
2023-04-07T16:38:06.381Z,9.45
2023-04-07T16:42:59.648Z,9.29
2023-04-07T16:47:52.548Z,9.14
2023-04-07T16:52:46.922Z,8.99
2023-04-07T16:57:39.771Z,8.88
2023-04-07T17:02:33.440Z,8.78
2023-04-07T17:07:26.495Z,8.71
2023-04-07T17:12:19.314Z,8.66
2023-04-07T17:17:12.182Z,8.58
2023-04-07T17:22:05.000Z,8.53
2023-04-07T17:26:57.900Z,8.49
2023-04-07T17:31:50.840Z,8.44
2023-04-07T17:36:43.647Z,8.38
2023-04-07T17:41:38.465Z,8.33
2023-04-07T17:46:32.108Z,8.27
2023-04-07T17:51:26.881Z,8.22
2023-04-07T17:56:20.439Z,8.19
2023-04-07T18:01:13.770Z,8.16
2023-04-07T18:06:08.569Z,8.12
2023-04-07T18:11:01.501Z,8.09
2023-04-07T18:15:55.209Z,8.06
2023-04-07T18:20:48.338Z,8.03
2023-04-07T18:25:41.150Z,7.99
2023-04-07T18:30:34.637Z,7.95
2023-04-07T18:35:28.660Z,7.91
2023-04-07T18:40:21.954Z,7.87
2023-04-07T18:45:14.788Z,7.81
2023-04-07T18:50:08.430Z,7.73
2023-04-07T18:55:01.249Z,7.67
2023-04-07T18:59:54.087Z,7.62
2023-04-07T19:04:46.881Z,7.59
2023-04-07T19:09:40.057Z,7.59
2023-04-07T19:14:32.861Z,7.59
2023-04-07T19:19:26.133Z,7.56
2023-04-07T19:24:18.964Z,7.52
2023-04-07T19:29:12.662Z,7.42
2023-04-07T19:34:05.475Z,7.31
2023-04-07T19:38:58.337Z,7.22
2023-04-07T19:43:51.682Z,7.16
2023-04-07T19:48:44.548Z,7.10
2023-04-07T19:53:37.641Z,7.02
2023-04-07T19:58:30.458Z,6.95
2023-04-07T20:03:24.442Z,6.89
2023-04-07T20:08:17.428Z,6.85
2023-04-07T20:13:10.602Z,6.79
2023-04-07T20:18:03.721Z,6.72
2023-04-07T20:22:56.616Z,6.65
2023-04-07T20:27:50.538Z,6.57
2023-04-07T20:32:43.615Z,6.50
2023-04-07T20:37:36.709Z,6.46
2023-04-07T20:42:29.500Z,6.40
2023-04-07T20:47:22.388Z,6.34
2023-04-07T20:52:15.275Z,6.35
2023-04-07T20:57:08.079Z,6.35
2023-04-07T21:02:01.054Z,6.33
2023-04-07T21:06:53.972Z,6.32
2023-04-07T21:11:46.874Z,6.31
2023-04-07T21:16:39.667Z,6.29
2023-04-07T21:21:32.727Z,6.25
2023-04-07T21:26:26.649Z,6.22
2023-04-07T21:31:23.634Z,6.20
2023-04-07T21:36:16.574Z,6.21
2023-04-07T21:41:09.653Z,6.19
2023-04-07T21:46:02.711Z,6.17
2023-04-07T21:50:55.696Z,6.15
2023-04-07T21:55:48.539Z,6.14
2023-04-07T22:00:42.026Z,6.13
2023-04-07T22:05:39.507Z,6.12
2023-04-07T22:10:33.014Z,6.09
2023-04-07T22:15:26.822Z,6.06
2023-04-07T22:20:19.680Z,6.07
2023-04-07T22:25:12.499Z,6.05
2023-04-07T22:30:08.694Z,6.06
2023-04-07T22:35:01.515Z,6.03
2023-04-07T22:39:54.520Z,5.98
2023-04-07T22:44:48.205Z,5.96
2023-04-07T22:49:41.061Z,5.93
2023-04-07T22:54:34.769Z,5.93
2023-04-07T22:59:27.717Z,5.93
2023-04-07T23:04:22.645Z,5.90
2023-04-07T23:09:15.798Z,5.92
2023-04-07T23:14:08.854Z,5.90
2023-04-07T23:19:02.336Z,5.89
2023-04-07T23:23:55.412Z,5.86
2023-04-07T23:28:48.797Z,5.84
2023-04-07T23:33:41.780Z,5.82
2023-04-07T23:38:36.377Z,5.80
2023-04-07T23:43:29.167Z,5.77
2023-04-07T23:48:21.961Z,5.78
2023-04-07T23:53:14.773Z,5.76
2023-04-07T23:58:07.569Z,5.74
